Temp: 5.3°C   Baro: 1000.3mb
  Wind: 0.0mph   Dir: WSW (242°)
  Rain: 0.0mm (0.0mm/hr)
  Solar: 76W/m2  Hum: 90%
 
Bath Spa Weather Historical Data
Daily Summary for July 5, 2019 Units:  Metric    English   Both
Next Day »
Daily Weekly Monthly Yearly Custom
  High: Low: Average:
Temperature: 23.9 °C 13.5 °C 18.5 °C
Dew Point: 14.3 °C 5.1 °C 11.5 °C
Humidity: 87% 34% 66%
Wind Speed: 20.9km/h 0.0km/h 3.2km/h
Wind Gust: 20.9km/h - -
Wind direction- - West
Pressure: 1021.9 hPa 1015.5 hPa -
Precipitation: 0.0 mm    
Historical Graphs
 
 
Tabular Data for July 5, 2019
Time Temperature Dew Point Pressure Wind direction Wind Speed Wind Gust Humidity Rainfall Rate (Hourly) solar
00:04 16.2 °C 11.4 °C 1021.6 hPa Calm     73% 0.0 mm 0.00 W/m2
00:09 16.2 °C 11.4 °C 1021.6 hPa Calm     73% 0.0 mm 0.00 W/m2
00:14 16.0 °C 11.2 °C 1021.6 hPa Calm     73% 0.0 mm 0.00 W/m2
00:19 15.9 °C 11.1 °C 1021.6 hPa Calm     73% 0.0 mm 0.00 W/m2
00:24 15.9 °C 11.3 °C 1021.6 hPa Calm     74% 0.0 mm 0.00 W/m2
00:29 15.8 °C 11.2 °C 1021.6 hPa Calm     74% 0.0 mm 0.00 W/m2
00:34 15.8 °C 11.2 °C 1021.6 hPa Calm     74% 0.0 mm 0.00 W/m2
00:39 15.8 °C 11.2 °C 1021.6 hPa Calm     74% 0.0 mm 0.00 W/m2
00:44 15.7 °C 11.1 °C 1021.6 hPa Calm     74% 0.0 mm 0.00 W/m2
00:49 15.7 °C 11.1 °C 1021.6 hPa Calm     74% 0.0 mm 0.00 W/m2
00:54 15.7 °C 11.1 °C 1021.6 hPa Calm     74% 0.0 mm 0.00 W/m2
00:59 15.7 °C 11.1 °C 1021.6 hPa Calm     74% 0.0 mm 0.00 W/m2
01:04 15.7 °C 11.1 °C 1021.6 hPa Calm     74% 0.0 mm 0.00 W/m2
01:09 15.6 °C 11.2 °C 1021.6 hPa Calm     75% 0.0 mm 0.00 W/m2
01:14 15.5 °C 11.1 °C 1021.6 hPa Calm   4.8 km/h 75% 0.0 mm 0.00 W/m2
01:19 15.3 °C 10.9 °C 1021.6 hPa Calm   4.8 km/h 75% 0.0 mm 0.00 W/m2
01:24 15.2 °C 11.0 °C 1021.6 hPa Calm   1.6 km/h 76% 0.0 mm 0.00 W/m2
01:29 15.2 °C 11.0 °C 1021.6 hPa West 3.2 km/h 3.2 km/h 76% 0.0 mm 0.00 W/m2
01:34 15.2 °C 11.2 °C 1021.9 hPa Calm   1.6 km/h 77% 0.0 mm 0.00 W/m2
01:39 15.1 °C 11.1 °C 1021.9 hPa West 3.2 km/h 4.8 km/h 77% 0.0 mm 0.00 W/m2
01:44 15.0 °C 11.2 °C 1021.6 hPa Calm     78% 0.0 mm 0.00 W/m2
01:49 15.0 °C 11.4 °C 1021.6 hPa Calm     79% 0.0 mm 0.00 W/m2
01:54 15.0 °C 11.4 °C 1021.6 hPa Calm     79% 0.0 mm 0.00 W/m2
01:59 15.0 °C 11.4 °C 1021.6 hPa Calm     79% 0.0 mm 0.00 W/m2
02:04 15.0 °C 11.4 °C 1021.6 hPa Calm     79% 0.0 mm 0.00 W/m2
02:09 15.0 °C 11.4 °C 1021.6 hPa Calm     79% 0.0 mm 0.00 W/m2
02:14 15.0 °C 11.4 °C 1021.6 hPa Calm     79% 0.0 mm 0.00 W/m2
02:19 15.0 °C 11.4 °C 1021.2 hPa Calm     79% 0.0 mm 0.00 W/m2
02:24 14.9 °C 11.3 °C 1021.2 hPa Calm     79% 0.0 mm 0.00 W/m2
02:29 14.8 °C 11.2 °C 1021.2 hPa Calm     79% 0.0 mm 0.00 W/m2
02:34 14.7 °C 11.3 °C 1021.2 hPa Calm     80% 0.0 mm 0.00 W/m2
02:39 14.5 °C 11.1 °C 1021.2 hPa Calm     80% 0.0 mm 0.00 W/m2
02:44 14.5 °C 11.1 °C 1021.2 hPa Calm     80% 0.0 mm 0.00 W/m2
02:49 14.4 °C 11.2 °C 1021.2 hPa Calm     81% 0.0 mm 0.00 W/m2
02:54 14.4 °C 11.2 °C 1021.2 hPa Calm     81% 0.0 mm 0.00 W/m2
02:59 14.5 °C 11.3 °C 1021.2 hPa Calm     81% 0.0 mm 0.00 W/m2
03:04 14.5 °C 11.3 °C 1021.2 hPa Calm     81% 0.0 mm 0.00 W/m2
03:09 14.5 °C 11.3 °C 1021.2 hPa Calm     81% 0.0 mm 0.00 W/m2
03:14 14.5 °C 11.3 °C 1021.2 hPa Calm     81% 0.0 mm 0.00 W/m2
03:19 14.5 °C 11.3 °C 1021.2 hPa Calm     81% 0.0 mm 0.00 W/m2
03:24 14.5 °C 11.5 °C 1021.2 hPa Calm     82% 0.0 mm 0.00 W/m2
03:29 14.4 °C 11.4 °C 1020.9 hPa Calm     82% 0.0 mm 0.00 W/m2
03:34 14.4 °C 11.4 °C 1020.9 hPa Calm     82% 0.0 mm 0.00 W/m2
03:39 14.4 °C 11.4 °C 1020.9 hPa Calm     82% 0.0 mm 0.00 W/m2
03:44 14.3 °C 11.5 °C 1020.9 hPa Calm     83% 0.0 mm 0.00 W/m2
03:49 14.3 °C 11.5 °C 1020.9 hPa Calm     83% 0.0 mm 0.00 W/m2
03:54 14.3 °C 11.5 °C 1020.9 hPa Calm     83% 0.0 mm 0.00 W/m2
03:59 14.2 °C 11.5 °C 1020.9 hPa Calm     84% 0.0 mm 0.00 W/m2
04:04 14.2 °C 11.5 °C 1020.9 hPa Calm     84% 0.0 mm 0.00 W/m2
04:09 14.2 °C 11.5 °C 1020.9 hPa Calm     84% 0.0 mm 0.00 W/m2
04:14 14.2 °C 11.5 °C 1020.9 hPa Calm     84% 0.0 mm 0.00 W/m2
04:19 14.2 °C 11.5 °C 1020.9 hPa Calm     84% 0.0 mm 0.00 W/m2
04:24 14.1 °C 11.4 °C 1020.9 hPa Calm     84% 0.0 mm 0.00 W/m2
04:29 14.1 °C 11.4 °C 1020.9 hPa Calm     84% 0.0 mm 0.00 W/m2
04:34 14.0 °C 11.3 °C 1020.9 hPa Calm     84% 0.0 mm 0.00 W/m2
04:39 14.0 °C 11.3 °C 1020.5 hPa Calm     84% 0.0 mm 0.00 W/m2
04:44 13.9 °C 11.4 °C 1020.5 hPa Calm     85% 0.0 mm 0.00 W/m2
04:49 13.9 °C 11.4 °C 1020.9 hPa Calm     85% 0.0 mm 0.00 W/m2
04:54 13.9 °C 11.4 °C 1020.5 hPa Calm     85% 0.0 mm 0.00 W/m2
04:59 13.9 °C 11.4 °C 1020.5 hPa Calm     85% 0.0 mm 0.00 W/m2
05:04 13.8 °C 11.3 °C 1020.5 hPa Calm     85% 0.0 mm 5.00 W/m2
05:09 13.8 °C 11.3 °C 1020.5 hPa Calm     85% 0.0 mm 5.00 W/m2
05:14 13.7 °C 11.2 °C 1020.5 hPa Calm     85% 0.0 mm 11.00 W/m2
05:19 13.7 °C 11.4 °C 1020.5 hPa Calm     86% 0.0 mm 12.00 W/m2
05:24 13.7 °C 11.4 °C 1020.5 hPa Calm     86% 0.0 mm 18.00 W/m2
05:29 13.7 °C 11.4 °C 1020.5 hPa Calm     86% 0.0 mm 21.00 W/m2
05:34 13.6 °C 11.3 °C 1020.5 hPa Calm     86% 0.0 mm 21.00 W/m2
05:39 13.5 °C 11.2 °C 1020.5 hPa Calm     86% 0.0 mm 25.00 W/m2
05:44 13.5 °C 11.2 °C 1020.5 hPa Calm     86% 0.0 mm 28.00 W/m2
05:49 13.7 °C 11.4 °C 1020.5 hPa Calm     86% 0.0 mm 32.00 W/m2
05:54 13.7 °C 11.4 °C 1020.5 hPa Calm     86% 0.0 mm 37.00 W/m2
05:59 13.8 °C 11.7 °C 1020.5 hPa Calm     87% 0.0 mm 44.00 W/m2
06:04 13.8 °C 11.7 °C 1020.5 hPa Calm     87% 0.0 mm 60.00 W/m2
06:09 13.9 °C 11.6 °C 1020.5 hPa Calm     86% 0.0 mm 72.00 W/m2
06:14 14.0 °C 11.7 °C 1020.5 hPa Calm     86% 0.0 mm 86.00 W/m2
06:19 14.1 °C 11.8 °C 1020.5 hPa Calm     86% 0.0 mm 98.00 W/m2
06:24 14.3 °C 12.0 °C 1020.5 hPa Calm     86% 0.0 mm 109.00 W/m2
06:29 14.4 °C 12.1 °C 1020.5 hPa Calm     86% 0.0 mm 116.00 W/m2
06:34 14.5 °C 12.2 °C 1020.5 hPa Calm     86% 0.0 mm 128.00 W/m2
06:39 14.8 °C 12.3 °C 1020.5 hPa Calm     85% 0.0 mm 151.00 W/m2
06:44 15.0 °C 12.5 °C 1020.5 hPa Calm     85% 0.0 mm 165.00 W/m2
06:49 15.3 °C 12.8 °C 1020.5 hPa Calm     85% 0.0 mm 148.00 W/m2
06:54 15.4 °C 12.5 °C 1020.5 hPa Calm   3.2 km/h 83% 0.0 mm 118.00 W/m2
06:59 15.5 °C 12.6 °C 1020.5 hPa West 1.4 km/h 3.2 km/h 83% 0.0 mm 114.00 W/m2
07:04 15.5 °C 12.4 °C 1020.5 hPa Calm     82% 0.0 mm 132.00 W/m2
07:09 15.6 °C 12.5 °C 1020.5 hPa Calm   3.2 km/h 82% 0.0 mm 135.00 W/m2
07:14 15.8 °C 12.7 °C 1020.5 hPa Calm     82% 0.0 mm 148.00 W/m2
07:19 15.9 °C 12.6 °C 1020.5 hPa Calm   1.6 km/h 81% 0.0 mm 144.00 W/m2
07:24 16.2 °C 12.9 °C 1020.5 hPa Calm   1.6 km/h 81% 0.0 mm 148.00 W/m2
07:29 16.3 °C 12.8 °C 1020.5 hPa Calm     80% 0.0 mm 155.00 W/m2
07:34 16.3 °C 12.7 °C 1020.5 hPa Calm     79% 0.0 mm 162.00 W/m2
07:39 16.5 °C 12.8 °C 1020.5 hPa Calm     79% 0.0 mm 179.00 W/m2
07:44 16.6 °C 12.7 °C 1020.2 hPa Calm     78% 0.0 mm 192.00 W/m2
07:49 16.7 °C 12.6 °C 1020.2 hPa Calm     77% 0.0 mm 227.00 W/m2
07:54 16.7 °C 12.6 °C 1020.2 hPa Calm     77% 0.0 mm 213.00 W/m2
07:59 16.8 °C 12.7 °C 1020.2 hPa Calm     77% 0.0 mm 190.00 W/m2
08:04 16.9 °C 12.6 °C 1020.5 hPa Calm   1.6 km/h 76% 0.0 mm 190.00 W/m2
08:09 17.2 °C 12.9 °C 1020.5 hPa Calm   3.2 km/h 76% 0.0 mm 190.00 W/m2
08:14 17.2 °C 12.7 °C 1020.5 hPa Calm   3.2 km/h 75% 0.0 mm 202.00 W/m2
08:19 17.2 °C 12.5 °C 1020.5 hPa Calm     74% 0.0 mm 207.00 W/m2
08:24 17.3 °C 12.6 °C 1020.2 hPa Calm     74% 0.0 mm 216.00 W/m2
08:29 17.8 °C 12.7 °C 1020.2 hPa Calm     72% 0.0 mm 257.00 W/m2
08:34 18.0 °C 12.4 °C 1020.2 hPa Calm     70% 0.0 mm 197.00 W/m2
08:39 18.0 °C 12.4 °C 1020.2 hPa Calm     70% 0.0 mm 246.00 W/m2
08:44 18.3 °C 12.5 °C 1020.2 hPa Calm     69% 0.0 mm 350.00 W/m2
08:49 18.5 °C 12.3 °C 1019.9 hPa West 3.2 km/h 3.2 km/h 67% 0.0 mm 503.00 W/m2
08:54 18.9 °C 12.6 °C 1019.9 hPa Calm   1.6 km/h 67% 0.0 mm 336.00 W/m2
08:59 18.5 °C 12.3 °C 1019.9 hPa Calm   6.4 km/h 67% 0.0 mm 343.00 W/m2
09:04 18.8 °C 12.3 °C 1019.9 hPa Calm   1.6 km/h 66% 0.0 mm 338.00 W/m2
09:09 19.3 °C 12.6 °C 1019.9 hPa Calm     65% 0.0 mm 304.00 W/m2
09:14 19.3 °C 12.3 °C 1019.9 hPa Calm     64% 0.0 mm 396.00 W/m2
09:19 20.0 °C 13.2 °C 1019.9 hPa West 1.4 km/h 4.8 km/h 65% 0.0 mm 272.00 W/m2
09:24 20.3 °C 13.3 °C 1019.9 hPa Calm   1.6 km/h 64% 0.0 mm 267.00 W/m2
09:29 20.5 °C 13.2 °C 1019.9 hPa Calm   4.8 km/h 63% 0.0 mm 531.00 W/m2
09:34 20.2 °C 12.9 °C 1019.9 hPa Calm   1.6 km/h 63% 0.0 mm 654.00 W/m2
09:39 19.8 °C 12.8 °C 1019.9 hPa Calm   1.6 km/h 64% 0.0 mm 752.00 W/m2
09:44 20.0 °C 13.0 °C 1019.9 hPa West 4.8 km/h 4.8 km/h 64% 0.0 mm 338.00 W/m2
09:49 20.1 °C 12.8 °C 1019.9 hPa West 3.2 km/h 3.2 km/h 63% 0.0 mm 374.00 W/m2
09:54 20.4 °C 13.1 °C 1019.9 hPa Calm   3.2 km/h 63% 0.0 mm 599.00 W/m2
09:59 20.4 °C 13.1 °C 1019.9 hPa West 1.4 km/h 3.2 km/h 63% 0.0 mm 271.00 W/m2
10:04 20.2 °C 12.9 °C 1019.9 hPa West 1.4 km/h 1.6 km/h 63% 0.0 mm 255.00 W/m2
10:09 20.5 °C 13.2 °C 1019.9 hPa West 1.4 km/h 3.2 km/h 63% 0.0 mm 759.00 W/m2
10:14 20.8 °C 13.5 °C 1019.9 hPa Calm   1.6 km/h 63% 0.0 mm 740.00 W/m2
10:19 20.6 °C 13.6 °C 1019.5 hPa Calm   9.7 km/h 64% 0.0 mm 638.00 W/m2
10:24 20.7 °C 13.4 °C 1019.5 hPa Calm   6.4 km/h 63% 0.0 mm 564.00 W/m2
10:29 21.3 °C 13.7 °C 1019.5 hPa Calm   6.4 km/h 62% 0.0 mm 763.00 W/m2
10:34 21.1 °C 13.3 °C 1019.5 hPa Calm   8.0 km/h 61% 0.0 mm 805.00 W/m2
10:39 22.2 °C 14.1 °C 1019.5 hPa West 1.4 km/h 4.8 km/h 60% 0.0 mm 842.00 W/m2
10:44 21.9 °C 13.8 °C 1019.5 hPa West 4.7 km/h 9.7 km/h 60% 0.0 mm 719.00 W/m2
10:49 21.6 °C 13.8 °C 1019.5 hPa WSW 14.5 km/h 14.5 km/h 61% 0.0 mm 751.00 W/m2
10:54 21.8 °C 14.2 °C 1019.5 hPa North 9.7 km/h 12.9 km/h 62% 0.0 mm 700.00 W/m2
10:59 21.8 °C 13.7 °C 1019.5 hPa West 6.4 km/h 11.3 km/h 60% 0.0 mm 947.00 W/m2
11:04 21.7 °C 13.6 °C 1019.5 hPa Calm   9.7 km/h 60% 0.0 mm 828.00 W/m2
11:09 21.9 °C 13.5 °C 1019.5 hPa West 6.4 km/h 14.5 km/h 59% 0.0 mm 693.00 W/m2
11:14 21.5 °C 13.1 °C 1019.5 hPa WNW 9.7 km/h 11.3 km/h 59% 0.0 mm 352.00 W/m2
11:19 21.2 °C 13.6 °C 1019.5 hPa WNW 7.9 km/h 9.7 km/h 62% 0.0 mm 330.00 W/m2
11:24 21.1 °C 13.3 °C 1019.5 hPa WNW 6.4 km/h 6.4 km/h 61% 0.0 mm 418.00 W/m2
11:29 21.5 °C 13.4 °C 1019.5 hPa WNW 9.7 km/h 9.7 km/h 60% 0.0 mm 396.00 W/m2
11:34 21.0 °C 13.2 °C 1019.5 hPa WNW 4.7 km/h 11.3 km/h 61% 0.0 mm 364.00 W/m2
11:39 21.2 °C 13.6 °C 1019.5 hPa NW 6.4 km/h 9.7 km/h 62% 0.0 mm 390.00 W/m2
11:44 21.0 °C 13.4 °C 1019.5 hPa Calm   4.8 km/h 62% 0.0 mm 318.00 W/m2
11:49 21.4 °C 13.3 °C 1019.5 hPa WNW 1.4 km/h 9.7 km/h 60% 0.0 mm 260.00 W/m2
11:54 21.3 °C 13.5 °C 1019.5 hPa WNW 7.9 km/h 9.7 km/h 61% 0.0 mm 253.00 W/m2
11:59 21.4 °C 13.6 °C 1019.5 hPa WNW 4.7 km/h 6.4 km/h 61% 0.0 mm 345.00 W/m2
12:04 21.8 °C 13.9 °C 1019.5 hPa WNW 4.7 km/h 8.0 km/h 61% 0.0 mm 909.00 W/m2
12:09 21.6 °C 13.5 °C 1019.5 hPa WNW 11.3 km/h 11.3 km/h 60% 0.0 mm 406.00 W/m2
12:14 21.5 °C 13.4 °C 1019.5 hPa WNW 6.4 km/h 12.9 km/h 60% 0.0 mm 420.00 W/m2
12:19 21.4 °C 13.1 °C 1019.5 hPa Calm   9.7 km/h 59% 0.0 mm 473.00 W/m2
12:24 21.7 °C 13.6 °C 1019.5 hPa WNW 3.2 km/h 9.7 km/h 60% 0.0 mm 446.00 W/m2
12:29 21.7 °C 13.3 °C 1019.2 hPa Calm   1.6 km/h 59% 0.0 mm 480.00 W/m2
12:34 21.8 °C 13.9 °C 1019.2 hPa WNW 7.9 km/h 12.9 km/h 61% 0.0 mm 496.00 W/m2
12:39 21.7 °C 13.3 °C 1019.2 hPa WNW 3.2 km/h 11.3 km/h 59% 0.0 mm 439.00 W/m2
12:44 21.8 °C 13.7 °C 1019.2 hPa WNW 4.7 km/h 9.7 km/h 60% 0.0 mm 411.00 W/m2
12:49 22.0 °C 13.6 °C 1019.2 hPa Calm   4.8 km/h 59% 0.0 mm 431.00 W/m2
12:54 22.4 °C 13.5 °C 1019.2 hPa WNW 4.7 km/h 6.4 km/h 57% 0.0 mm 564.00 W/m2
12:59 22.4 °C 13.7 °C 1019.2 hPa West 6.4 km/h 6.4 km/h 58% 0.0 mm 731.00 W/m2
13:04 22.0 °C 12.8 °C 1019.2 hPa West 6.4 km/h 14.5 km/h 56% 0.0 mm 638.00 W/m2
13:09 22.4 °C 13.5 °C 1019.2 hPa West 4.7 km/h 4.8 km/h 57% 0.0 mm 659.00 W/m2
13:14 22.7 °C 12.6 °C 1019.2 hPa West 6.4 km/h 11.3 km/h 53% 0.0 mm 721.00 W/m2
13:19 22.9 °C 13.4 °C 1019.2 hPa WSW 7.9 km/h 12.9 km/h 55% 0.0 mm 874.00 W/m2
13:24 22.5 °C 13.8 °C 1018.8 hPa WSW 3.2 km/h 8.0 km/h 58% 0.0 mm 582.00 W/m2
13:29 22.7 °C 14.3 °C 1018.8 hPa West 3.2 km/h 12.9 km/h 59% 0.0 mm 529.00 W/m2
13:34 22.4 °C 14.3 °C 1018.8 hPa West 1.4 km/h 6.4 km/h 60% 0.0 mm 494.00 W/m2
13:39 22.8 °C 13.8 °C 1018.8 hPa West 6.4 km/h 8.0 km/h 57% 0.0 mm 603.00 W/m2
13:44 22.8 °C 13.3 °C 1018.8 hPa WNW 3.2 km/h 11.3 km/h 55% 0.0 mm 795.00 W/m2
13:49 23.5 °C 13.4 °C 1018.8 hPa WNW 7.9 km/h 8.0 km/h 53% 0.0 mm 745.00 W/m2
13:54 23.3 °C 12.6 °C 1018.8 hPa West 7.9 km/h 9.7 km/h 51% 0.0 mm 687.00 W/m2
13:59 23.4 °C 12.4 °C 1018.5 hPa Calm   11.3 km/h 50% 0.0 mm 563.00 W/m2
14:04 23.0 °C 11.4 °C 1018.5 hPa West 7.9 km/h 17.7 km/h 48% 0.0 mm 383.00 W/m2
14:09 22.7 °C 11.1 °C 1018.5 hPa West 7.9 km/h 9.7 km/h 48% 0.0 mm 388.00 W/m2
14:14 22.4 °C 10.5 °C 1018.5 hPa West 3.2 km/h 14.5 km/h 47% 0.0 mm 476.00 W/m2
14:19 22.7 °C 12.0 °C 1018.5 hPa West 1.4 km/h 16.1 km/h 51% 0.0 mm 573.00 W/m2
14:24 23.1 °C 11.8 °C 1018.5 hPa West 7.9 km/h 16.1 km/h 49% 0.0 mm 563.00 W/m2
14:29 23.2 °C 12.5 °C 1018.5 hPa West 7.9 km/h 14.5 km/h 51% 0.0 mm 397.00 W/m2
14:34 23.2 °C 12.2 °C 1018.5 hPa WNW 11.1 km/h 11.3 km/h 50% 0.0 mm 378.00 W/m2
14:39 22.9 °C 12.8 °C 1018.5 hPa West 9.7 km/h 14.5 km/h 53% 0.0 mm 469.00 W/m2
14:44 22.8 °C 13.3 °C 1018.5 hPa West 4.7 km/h 12.9 km/h 55% 0.0 mm 439.00 W/m2
14:49 22.8 °C 13.8 °C 1018.2 hPa NW 13.0 km/h 14.5 km/h 57% 0.0 mm 443.00 W/m2
14:54 22.8 °C 13.8 °C 1018.2 hPa NW 6.4 km/h 12.9 km/h 57% 0.0 mm 766.00 W/m2
14:59 22.8 °C 13.8 °C 1018.2 hPa West 9.7 km/h 14.5 km/h 57% 0.0 mm 492.00 W/m2
15:04 22.9 °C 13.4 °C 1018.2 hPa WNW 9.7 km/h 14.5 km/h 55% 0.0 mm 457.00 W/m2
15:09 22.8 °C 12.4 °C 1018.2 hPa WNW 11.1 km/h 19.3 km/h 52% 0.0 mm 418.00 W/m2
15:14 22.5 °C 12.2 °C 1018.2 hPa West 14.3 km/h 14.5 km/h 52% 0.0 mm 492.00 W/m2
15:19 22.6 °C 11.9 °C 1018.2 hPa West 7.9 km/h 14.5 km/h 51% 0.0 mm 466.00 W/m2
15:24 22.5 °C 12.2 °C 1017.8 hPa WSW 6.4 km/h 17.7 km/h 52% 0.0 mm 415.00 W/m2
15:29 22.7 °C 11.7 °C 1017.8 hPa WSW 11.1 km/h 16.1 km/h 50% 0.0 mm 380.00 W/m2
15:34 22.7 °C 7.3 °C 1017.8 hPa West 16.3 km/h 16.1 km/h 37% 0.0 mm 548.00 W/m2
15:39 22.5 °C 8.6 °C 1017.8 hPa West 6.4 km/h 12.9 km/h 41% 0.0 mm 510.00 W/m2
15:44 23.2 °C 9.6 °C 1017.8 hPa WSW 6.4 km/h 17.7 km/h 42% 0.0 mm 1056.00 W/m2
15:49 23.3 °C 8.6 °C 1017.8 hPa WSW 11.1 km/h 14.5 km/h 39% 0.0 mm 874.00 W/m2
15:54 23.5 °C 10.2 °C 1017.5 hPa WSW 7.9 km/h 12.9 km/h 43% 0.0 mm 617.00 W/m2
15:59 23.9 °C 9.8 °C 1017.5 hPa SW 13.0 km/h 14.5 km/h 41% 0.0 mm 842.00 W/m2
16:04 23.9 °C 9.5 °C 1017.5 hPa WSW 11.1 km/h 17.7 km/h 40% 0.0 mm 513.00 W/m2
16:09 23.7 °C 10.0 °C 1017.5 hPa West 3.2 km/h 16.1 km/h 42% 0.0 mm 446.00 W/m2
16:14 23.8 °C 10.1 °C 1017.5 hPa SW 11.1 km/h 14.5 km/h 42% 0.0 mm 443.00 W/m2
16:19 23.7 °C 10.4 °C 1017.5 hPa West 4.7 km/h 12.9 km/h 43% 0.0 mm 353.00 W/m2
16:24 23.5 °C 9.8 °C 1017.5 hPa WSW 11.1 km/h 19.3 km/h 42% 0.0 mm 450.00 W/m2
16:29 23.4 °C 10.8 °C 1017.5 hPa WNW 20.9 km/h 20.9 km/h 45% 0.0 mm 469.00 W/m2
16:34 23.3 °C 11.0 °C 1017.5 hPa WNW 11.1 km/h 16.1 km/h 46% 0.0 mm 469.00 W/m2
16:39 23.4 °C 10.5 °C 1017.2 hPa WNW 7.9 km/h 14.5 km/h 44% 0.0 mm 339.00 W/m2
16:44 23.2 °C 8.9 °C 1017.2 hPa West 7.9 km/h 17.7 km/h 40% 0.0 mm 255.00 W/m2
16:49 22.9 °C 8.9 °C 1017.2 hPa WNW 6.4 km/h 12.9 km/h 41% 0.0 mm 262.00 W/m2
16:54 22.6 °C 8.7 °C 1017.2 hPa West 16.3 km/h 16.1 km/h 41% 0.0 mm 260.00 W/m2
16:59 22.4 °C 6.6 °C 1017.2 hPa SW 9.7 km/h 17.7 km/h 36% 0.0 mm 283.00 W/m2
17:04 22.4 °C 5.8 °C 1017.2 hPa NW 11.1 km/h 16.1 km/h 34% 0.0 mm 290.00 W/m2
17:09 22.6 °C 7.2 °C 1016.8 hPa NW 6.4 km/h 8.0 km/h 37% 0.0 mm 295.00 W/m2
17:14 22.4 °C 7.4 °C 1016.8 hPa WNW 7.9 km/h 14.5 km/h 38% 0.0 mm 288.00 W/m2
17:19 22.4 °C 7.8 °C 1016.8 hPa NW 3.2 km/h 14.5 km/h 39% 0.0 mm 271.00 W/m2
17:24 22.6 °C 8.7 °C 1016.8 hPa NW 1.4 km/h 11.3 km/h 41% 0.0 mm 288.00 W/m2
17:29 22.4 °C 8.5 °C 1016.8 hPa West 9.7 km/h 14.5 km/h 41% 0.0 mm 253.00 W/m2
17:34 22.4 °C 7.8 °C 1016.8 hPa West 7.9 km/h 12.9 km/h 39% 0.0 mm 227.00 W/m2
17:39 22.3 °C 7.3 °C 1016.8 hPa West 3.2 km/h 11.3 km/h 38% 0.0 mm 213.00 W/m2
17:44 22.3 °C 8.4 °C 1016.8 hPa NW 9.7 km/h 12.9 km/h 41% 0.0 mm 202.00 W/m2
17:49 22.0 °C 8.8 °C 1016.8 hPa West 9.7 km/h 12.9 km/h 43% 0.0 mm 190.00 W/m2
17:54 21.9 °C 9.1 °C 1016.8 hPa West 7.9 km/h 12.9 km/h 44% 0.0 mm 183.00 W/m2
17:59 21.8 °C 9.3 °C 1016.8 hPa West 4.7 km/h 11.3 km/h 45% 0.0 mm 179.00 W/m2
18:04 21.9 °C 9.8 °C 1016.5 hPa West 1.4 km/h 12.9 km/h 46% 0.0 mm 174.00 W/m2
18:09 21.9 °C 9.8 °C 1016.8 hPa West 4.7 km/h 11.3 km/h 46% 0.0 mm 171.00 W/m2
18:14 21.9 °C 9.8 °C 1016.8 hPa West 6.4 km/h 9.7 km/h 46% 0.0 mm 167.00 W/m2
18:19 21.7 °C 8.9 °C 1016.5 hPa WNW 7.9 km/h 11.3 km/h 44% 0.0 mm 163.00 W/m2
18:24 21.7 °C 8.2 °C 1016.5 hPa WNW 17.7 km/h 17.7 km/h 42% 0.0 mm 158.00 W/m2
18:29 21.4 °C 5.3 °C 1016.5 hPa West 7.9 km/h 19.3 km/h 35% 0.0 mm 153.00 W/m2
18:34 21.2 °C 5.1 °C 1016.5 hPa WNW 9.7 km/h 16.1 km/h 35% 0.0 mm 149.00 W/m2
18:39 21.1 °C 6.2 °C 1016.5 hPa WNW 11.1 km/h 19.3 km/h 38% 0.0 mm 151.00 W/m2
18:44 21.0 °C 5.8 °C 1016.5 hPa WNW 1.4 km/h 11.3 km/h 37% 0.0 mm 149.00 W/m2
18:49 20.9 °C 6.0 °C 1016.5 hPa West 1.4 km/h 11.3 km/h 38% 0.0 mm 149.00 W/m2
18:54 20.7 °C 6.6 °C 1016.5 hPa WNW 6.4 km/h 12.9 km/h 40% 0.0 mm 151.00 W/m2
18:59 20.4 °C 7.1 °C 1016.5 hPa West 13.0 km/h 14.5 km/h 42% 0.0 mm 149.00 W/m2
19:04 20.3 °C 7.3 °C 1016.5 hPa West 9.7 km/h 16.1 km/h 43% 0.0 mm 146.00 W/m2
19:09 20.0 °C 8.0 °C 1016.1 hPa WNW 9.7 km/h 16.1 km/h 46% 0.0 mm 141.00 W/m2
19:13 20.0 °C 8.3 °C 1016.1 hPa West 7.9 km/h 11.3 km/h 47% 0.0 mm 132.00 W/m2
19:19 20.0 °C 8.7 °C 1016.1 hPa West 6.4 km/h 12.9 km/h 48% 0.0 mm 156.00 W/m2
19:24 20.0 °C 9.0 °C 1016.1 hPa WSW 6.4 km/h 11.3 km/h 49% 0.0 mm 132.00 W/m2
19:29 20.0 °C 9.3 °C 1016.1 hPa West 6.4 km/h 17.7 km/h 50% 0.0 mm 188.00 W/m2
19:34 20.0 °C 9.3 °C 1016.1 hPa West 9.7 km/h 11.3 km/h 50% 0.0 mm 121.00 W/m2
19:39 19.8 °C 9.4 °C 1016.1 hPa West 4.7 km/h 11.3 km/h 51% 0.0 mm 100.00 W/m2
19:44 19.7 °C 9.9 °C 1016.1 hPa West 7.9 km/h 9.7 km/h 53% 0.0 mm 134.00 W/m2
19:49 19.5 °C 10.5 °C 1016.1 hPa Calm   14.5 km/h 56% 0.0 mm 72.00 W/m2
19:54 19.4 °C 10.9 °C 1016.1 hPa WNW 4.7 km/h 12.9 km/h 58% 0.0 mm 81.00 W/m2
19:59 19.2 °C 11.2 °C 1016.1 hPa West 3.2 km/h 6.4 km/h 60% 0.0 mm 116.00 W/m2
20:04 19.1 °C 11.2 °C 1015.8 hPa WNW 4.7 km/h 9.7 km/h 60% 0.0 mm 53.00 W/m2
20:09 19.1 °C 11.6 °C 1015.8 hPa WNW 4.7 km/h 6.4 km/h 62% 0.0 mm 53.00 W/m2
20:14 18.9 °C 11.5 °C 1015.8 hPa WNW 12.9 km/h 12.9 km/h 62% 0.0 mm 39.00 W/m2
20:19 18.8 °C 11.8 °C 1015.8 hPa WNW 3.2 km/h 8.0 km/h 64% 0.0 mm 35.00 W/m2
20:24 18.7 °C 12.0 °C 1015.8 hPa WNW 3.2 km/h 9.7 km/h 65% 0.0 mm 65.00 W/m2
20:29 18.8 °C 12.1 °C 1015.8 hPa WNW 4.7 km/h 8.0 km/h 65% 0.0 mm 60.00 W/m2
20:34 18.9 °C 12.2 °C 1015.8 hPa WNW 4.7 km/h 9.7 km/h 65% 0.0 mm 47.00 W/m2
20:39 18.9 °C 12.2 °C 1015.8 hPa WNW 6.4 km/h 9.7 km/h 65% 0.0 mm 33.00 W/m2
20:44 18.8 °C 12.3 °C 1015.8 hPa West 4.7 km/h 4.8 km/h 66% 0.0 mm 28.00 W/m2
20:49 18.7 °C 12.2 °C 1015.8 hPa West 3.2 km/h 8.0 km/h 66% 0.0 mm 21.00 W/m2
20:54 18.5 °C 12.3 °C 1015.8 hPa West 1.4 km/h 8.0 km/h 67% 0.0 mm 16.00 W/m2
20:59 18.2 °C 12.0 °C 1015.8 hPa West 1.4 km/h 9.7 km/h 67% 0.0 mm 14.00 W/m2
21:04 18.1 °C 12.1 °C 1015.8 hPa West 1.4 km/h 4.8 km/h 68% 0.0 mm 12.00 W/m2
21:09 17.9 °C 12.1 °C 1016.1 hPa West 6.4 km/h 6.4 km/h 69% 0.0 mm 11.00 W/m2
21:14 17.8 °C 12.0 °C 1015.8 hPa West 4.7 km/h 4.8 km/h 69% 0.0 mm 9.00 W/m2
21:19 17.7 °C 12.2 °C 1015.8 hPa West 1.4 km/h 6.4 km/h 70% 0.0 mm 7.00 W/m2
21:24 17.5 °C 12.0 °C 1015.8 hPa Calm   3.2 km/h 70% 0.0 mm 5.00 W/m2
21:29 17.4 °C 11.9 °C 1016.1 hPa Calm   4.8 km/h 70% 0.0 mm 5.00 W/m2
21:34 17.3 °C 12.0 °C 1016.1 hPa West 8.0 km/h 8.0 km/h 71% 0.0 mm 0.00 W/m2
21:39 17.2 °C 11.9 °C 1016.1 hPa West 3.2 km/h 4.8 km/h 71% 0.0 mm 0.00 W/m2
21:44 17.1 °C 11.8 °C 1016.1 hPa West 9.7 km/h 9.7 km/h 71% 0.0 mm 0.00 W/m2
21:49 17.0 °C 11.9 °C 1016.1 hPa Calm   8.0 km/h 72% 0.0 mm 0.00 W/m2
21:54 16.9 °C 11.8 °C 1015.8 hPa West 3.2 km/h 8.0 km/h 72% 0.0 mm 0.00 W/m2
21:59 16.8 °C 11.7 °C 1016.1 hPa West 3.2 km/h 4.8 km/h 72% 0.0 mm 0.00 W/m2
22:04 16.7 °C 11.8 °C 1016.1 hPa Calm   3.2 km/h 73% 0.0 mm 0.00 W/m2
22:09 16.7 °C 11.8 °C 1015.8 hPa Calm   3.2 km/h 73% 0.0 mm 0.00 W/m2
22:14 16.7 °C 11.8 °C 1016.1 hPa Calm   1.6 km/h 73% 0.0 mm 0.00 W/m2
22:19 16.6 °C 11.7 °C 1016.1 hPa Calm     73% 0.0 mm 0.00 W/m2
22:24 16.6 °C 11.7 °C 1015.8 hPa Calm     73% 0.0 mm 0.00 W/m2
22:29 16.5 °C 11.8 °C 1015.8 hPa West 1.4 km/h 6.4 km/h 74% 0.0 mm 0.00 W/m2
22:34 16.5 °C 11.8 °C 1015.8 hPa Calm   6.4 km/h 74% 0.0 mm 0.00 W/m2
22:39 16.4 °C 11.8 °C 1015.8 hPa West 3.2 km/h 3.2 km/h 74% 0.0 mm 0.00 W/m2
22:44 16.4 °C 11.8 °C 1015.8 hPa West 1.4 km/h 4.8 km/h 74% 0.0 mm 0.00 W/m2
22:49 16.3 °C 11.7 °C 1015.8 hPa Calm   4.8 km/h 74% 0.0 mm 0.00 W/m2
22:54 16.2 °C 11.6 °C 1015.8 hPa West 4.7 km/h 8.0 km/h 74% 0.0 mm 0.00 W/m2
22:59 16.2 °C 11.6 °C 1015.8 hPa West 1.4 km/h 3.2 km/h 74% 0.0 mm 0.00 W/m2
23:04 16.1 °C 11.7 °C 1015.8 hPa Calm   1.6 km/h 75% 0.0 mm 0.00 W/m2
23:09 16.0 °C 11.6 °C 1015.8 hPa Calm   3.2 km/h 75% 0.0 mm 0.00 W/m2
23:14 16.0 °C 11.6 °C 1015.8 hPa Calm   1.6 km/h 75% 0.0 mm 0.00 W/m2
23:19 15.9 °C 11.5 °C 1015.8 hPa Calm   1.6 km/h 75% 0.0 mm 0.00 W/m2
23:24 15.8 °C 11.4 °C 1015.8 hPa Calm     75% 0.0 mm 0.00 W/m2
23:29 15.8 °C 11.4 °C 1015.5 hPa Calm   1.6 km/h 75% 0.0 mm 0.00 W/m2
23:34 15.7 °C 11.3 °C 1015.8 hPa Calm   3.2 km/h 75% 0.0 mm 0.00 W/m2
23:39 15.5 °C 11.1 °C 1015.8 hPa West 1.4 km/h 3.2 km/h 75% 0.0 mm 0.00 W/m2
23:44 15.5 °C 11.3 °C 1015.8 hPa Calm   1.6 km/h 76% 0.0 mm 0.00 W/m2
23:49 15.4 °C 11.4 °C 1015.8 hPa Calm     77% 0.0 mm 0.00 W/m2
23:54 15.3 °C 11.3 °C 1015.5 hPa Calm     77% 0.0 mm 0.00 W/m2
23:59 15.2 °C 11.4 °C 1015.5 hPa Calm     78% 0.0 mm 0.00 W/m2